sensor_id;sensor_type;location;lat;lon;timestamp;temperature;humidity
44305;DHT22;30019;50.576;8.568;2023-03-01T00:02:00;-1.30;99.90
44305;DHT22;30019;50.576;8.568;2023-03-01T00:04:25;-1.20;99.90
44305;DHT22;30019;50.576;8.568;2023-03-01T00:06:52;-1.20;99.90
44305;DHT22;30019;50.576;8.568;2023-03-01T00:09:18;-1.30;99.90
44305;DHT22;30019;50.576;8.568;2023-03-01T00:11:43;-1.10;99.90
44305;DHT22;30019;50.576;8.568;2023-03-01T00:14:09;-1.20;99.90
44305;DHT22;30019;50.576;8.568;2023-03-01T00:16:40;-1.30;99.90
44305;DHT22;30019;50.576;8.568;2023-03-01T00:19:07;-1.30;99.90
44305;DHT22;30019;50.576;8.568;2023-03-01T00:21:33;-1.10;99.90
44305;DHT22;30019;50.576;8.568;2023-03-01T00:24:01;-1.10;99.90
44305;DHT22;30019;50.576;8.568;2023-03-01T00:26:26;-1.20;99.90
44305;DHT22;30019;50.576;8.568;2023-03-01T00:28:52;-1.30;99.90
44305;DHT22;30019;50.576;8.568;2023-03-01T00:31:21;-1.30;99.90
44305;DHT22;30019;50.576;8.568;2023-03-01T00:33:46;-1.40;99.90
44305;DHT22;30019;50.576;8.568;2023-03-01T00:36:14;-1.50;99.90
44305;DHT22;30019;50.576;8.568;2023-03-01T00:38:42;-1.50;99.90
44305;DHT22;30019;50.576;8.568;2023-03-01T00:41:11;-1.50;99.90
44305;DHT22;30019;50.576;8.568;2023-03-01T00:43:37;-1.60;99.90
44305;DHT22;30019;50.576;8.568;2023-03-01T00:46:11;-1.70;99.90
44305;DHT22;30019;50.576;8.568;2023-03-01T00:48:37;-1.70;99.90
44305;DHT22;30019;50.576;8.568;2023-03-01T00:54:02;-1.50;99.90
44305;DHT22;30019;50.576;8.568;2023-03-01T00:56:28;-1.50;99.90
44305;DHT22;30019;50.576;8.568;2023-03-01T00:58:55;-1.50;99.90
44305;DHT22;30019;50.576;8.568;2023-03-01T01:01:26;-1.50;99.90
44305;DHT22;30019;50.576;8.568;2023-03-01T01:04:00;-1.50;99.90
44305;DHT22;30019;50.576;8.568;2023-03-01T01:06:29;-1.60;99.90
44305;DHT22;30019;50.576;8.568;2023-03-01T01:08:55;-1.60;99.90
44305;DHT22;30019;50.576;8.568;2023-03-01T01:11:23;-1.50;99.90
44305;DHT22;30019;50.576;8.568;2023-03-01T01:13:49;-1.60;99.90
44305;DHT22;30019;50.576;8.568;2023-03-01T01:16:16;-1.60;99.90
44305;DHT22;30019;50.576;8.568;2023-03-01T01:18:43;-1.70;99.90
44305;DHT22;30019;50.576;8.568;2023-03-01T01:21:11;-1.80;99.90
44305;DHT22;30019;50.576;8.568;2023-03-01T01:23:38;-1.90;99.90
44305;DHT22;30019;50.576;8.568;2023-03-01T01:26:07;-2.00;99.90
44305;DHT22;30019;50.576;8.568;2023-03-01T01:28:33;-2.10;99.90
44305;DHT22;30019;50.576;8.568;2023-03-01T01:30:58;-2.30;99.90
44305;DHT22;30019;50.576;8.568;2023-03-01T01:33:24;-2.20;99.90
44305;DHT22;30019;50.576;8.568;2023-03-01T01:35:50;-2.00;99.90
44305;DHT22;30019;50.576;8.568;2023-03-01T01:38:15;-2.00;99.90
44305;DHT22;30019;50.576;8.568;2023-03-01T01:40:45;-1.90;99.90
44305;DHT22;30019;50.576;8.568;2023-03-01T01:43:27;-1.90;99.90
44305;DHT22;30019;50.576;8.568;2023-03-01T01:46:01;-1.80;99.90
44305;DHT22;30019;50.576;8.568;2023-03-01T01:48:36;-1.90;99.90
44305;DHT22;30019;50.576;8.568;2023-03-01T01:51:09;-2.00;99.90
44305;DHT22;30019;50.576;8.568;2023-03-01T01:53:37;-2.10;99.90
44305;DHT22;30019;50.576;8.568;2023-03-01T01:56:07;-2.00;99.90
44305;DHT22;30019;50.576;8.568;2023-03-01T01:58:34;-1.90;99.90
44305;DHT22;30019;50.576;8.568;2023-03-01T02:01:01;-1.90;99.90
44305;DHT22;30019;50.576;8.568;2023-03-01T02:03:31;-2.00;99.90
44305;DHT22;30019;50.576;8.568;2023-03-01T02:06:17;-2.10;99.90
44305;DHT22;30019;50.576;8.568;2023-03-01T02:08:49;-2.20;99.90
44305;DHT22;30019;50.576;8.568;2023-03-01T02:11:17;-2.30;99.90
44305;DHT22;30019;50.576;8.568;2023-03-01T02:13:44;-2.30;99.90
44305;DHT22;30019;50.576;8.568;2023-03-01T02:16:14;-2.20;99.90
44305;DHT22;30019;50.576;8.568;2023-03-01T02:18:41;-2.20;99.90
44305;DHT22;30019;50.576;8.568;2023-03-01T02:21:42;-2.20;99.90
44305;DHT22;30019;50.576;8.568;2023-03-01T02:24:32;-2.30;99.90
44305;DHT22;30019;50.576;8.568;2023-03-01T02:27:00;-2.40;99.90
44305;DHT22;30019;50.576;8.568;2023-03-01T02:29:27;-2.50;99.90
44305;DHT22;30019;50.576;8.568;2023-03-01T02:31:54;-2.60;99.90
44305;DHT22;30019;50.576;8.568;2023-03-01T02:34:23;-2.70;99.90
44305;DHT22;30019;50.576;8.568;2023-03-01T02:36:53;-2.80;99.90
44305;DHT22;30019;50.576;8.568;2023-03-01T02:39:26;-2.80;99.90
44305;DHT22;30019;50.576;8.568;2023-03-01T02:41:54;-2.80;99.90
44305;DHT22;30019;50.576;8.568;2023-03-01T02:44:21;-2.80;99.90
44305;DHT22;30019;50.576;8.568;2023-03-01T02:46:50;-2.90;99.90
44305;DHT22;30019;50.576;8.568;2023-03-01T02:49:23;-2.90;99.90
44305;DHT22;30019;50.576;8.568;2023-03-01T02:55:08;-3.00;99.90
44305;DHT22;30019;50.576;8.568;2023-03-01T02:57:36;-3.10;99.90
44305;DHT22;30019;50.576;8.568;2023-03-01T03:00:08;-3.10;99.90
44305;DHT22;30019;50.576;8.568;2023-03-01T03:02:35;-3.10;99.90
44305;DHT22;30019;50.576;8.568;2023-03-01T03:05:09;-3.10;99.90
44305;DHT22;30019;50.576;8.568;2023-03-01T03:07:38;-3.00;99.90
44305;DHT22;30019;50.576;8.568;2023-03-01T03:10:07;-2.80;99.90
44305;DHT22;30019;50.576;8.568;2023-03-01T03:12:33;-2.80;99.90
44305;DHT22;30019;50.576;8.568;2023-03-01T03:14:59;-2.70;99.90
44305;DHT22;30019;50.576;8.568;2023-03-01T03:17:24;-2.70;99.90
44305;DHT22;30019;50.576;8.568;2023-03-01T03:19:50;-2.80;99.90
44305;DHT22;30019;50.576;8.568;2023-03-01T03:22:16;-2.70;99.90
44305;DHT22;30019;50.576;8.568;2023-03-01T03:24:41;-2.80;99.90
44305;DHT22;30019;50.576;8.568;2023-03-01T03:27:07;-2.80;99.90
44305;DHT22;30019;50.576;8.568;2023-03-01T03:29:33;-2.70;99.90
44305;DHT22;30019;50.576;8.568;2023-03-01T03:31:59;-2.80;99.90
44305;DHT22;30019;50.576;8.568;2023-03-01T03:34:25;-2.70;99.90
44305;DHT22;30019;50.576;8.568;2023-03-01T03:36:54;-2.80;99.90
44305;DHT22;30019;50.576;8.568;2023-03-01T03:39:25;-2.80;99.90
44305;DHT22;30019;50.576;8.568;2023-03-01T03:41:52;-2.80;99.90
44305;DHT22;30019;50.576;8.568;2023-03-01T03:44:18;-2.60;99.90
44305;DHT22;30019;50.576;8.568;2023-03-01T03:46:43;-2.50;99.90
44305;DHT22;30019;50.576;8.568;2023-03-01T03:49:09;-2.50;99.90
44305;DHT22;30019;50.576;8.568;2023-03-01T03:51:34;-2.30;99.90
44305;DHT22;30019;50.576;8.568;2023-03-01T03:54:00;-2.00;99.90
44305;DHT22;30019;50.576;8.568;2023-03-01T03:56:25;-1.80;99.90
44305;DHT22;30019;50.576;8.568;2023-03-01T03:58:52;-1.60;99.90
44305;DHT22;30019;50.576;8.568;2023-03-01T04:01:18;-1.60;99.90
44305;DHT22;30019;50.576;8.568;2023-03-01T04:03:43;-1.60;99.90
44305;DHT22;30019;50.576;8.568;2023-03-01T04:06:13;-1.60;99.90
44305;DHT22;30019;50.576;8.568;2023-03-01T04:08:39;-1.60;99.90
44305;DHT22;30019;50.576;8.568;2023-03-01T04:11:05;-1.80;99.90
44305;DHT22;30019;50.576;8.568;2023-03-01T04:13:50;-1.70;99.90
44305;DHT22;30019;50.576;8.568;2023-03-01T04:16:16;-1.60;99.90
44305;DHT22;30019;50.576;8.568;2023-03-01T04:18:43;-1.50;99.90
44305;DHT22;30019;50.576;8.568;2023-03-01T04:21:09;-1.40;99.90
44305;DHT22;30019;50.576;8.568;2023-03-01T04:23:36;-1.30;99.90
44305;DHT22;30019;50.576;8.568;2023-03-01T04:26:01;-1.40;99.90
44305;DHT22;30019;50.576;8.568;2023-03-01T04:28:33;-1.50;99.90
44305;DHT22;30019;50.576;8.568;2023-03-01T04:31:04;-1.50;99.90
44305;DHT22;30019;50.576;8.568;2023-03-01T04:33:42;-1.40;99.90
44305;DHT22;30019;50.576;8.568;2023-03-01T04:36:10;-1.50;99.90
44305;DHT22;30019;50.576;8.568;2023-03-01T04:38:39;-1.50;99.90
44305;DHT22;30019;50.576;8.568;2023-03-01T04:41:10;-1.40;99.90
44305;DHT22;30019;50.576;8.568;2023-03-01T04:43:36;-1.50;99.90
44305;DHT22;30019;50.576;8.568;2023-03-01T04:46:08;-1.50;99.90
44305;DHT22;30019;50.576;8.568;2023-03-01T04:48:36;-1.50;99.90
44305;DHT22;30019;50.576;8.568;2023-03-01T04:51:02;-1.50;99.90
44305;DHT22;30019;50.576;8.568;2023-03-01T04:53:29;-1.50;99.90
44305;DHT22;30019;50.576;8.568;2023-03-01T04:55:55;-1.50;99.90
44305;DHT22;30019;50.576;8.568;2023-03-01T04:58:26;-1.50;99.90
44305;DHT22;30019;50.576;8.568;2023-03-01T05:00:52;-1.50;99.90
44305;DHT22;30019;50.576;8.568;2023-03-01T05:03:19;-1.60;99.90
44305;DHT22;30019;50.576;8.568;2023-03-01T05:05:46;-1.60;99.90
44305;DHT22;30019;50.576;8.568;2023-03-01T05:08:12;-1.60;99.90
44305;DHT22;30019;50.576;8.568;2023-03-01T05:10:50;-1.70;99.90
44305;DHT22;30019;50.576;8.568;2023-03-01T05:13:16;-1.70;99.90
44305;DHT22;30019;50.576;8.568;2023-03-01T05:15:53;-1.70;99.90
44305;DHT22;30019;50.576;8.568;2023-03-01T05:18:19;-1.80;99.90
44305;DHT22;30019;50.576;8.568;2023-03-01T05:20:45;-1.70;99.90
44305;DHT22;30019;50.576;8.568;2023-03-01T05:23:11;-1.60;99.90
44305;DHT22;30019;50.576;8.568;2023-03-01T05:25:37;-1.70;99.90
44305;DHT22;30019;50.576;8.568;2023-03-01T05:28:07;-1.70;99.90
44305;DHT22;30019;50.576;8.568;2023-03-01T05:30:33;-1.80;99.90
44305;DHT22;30019;50.576;8.568;2023-03-01T05:32:59;-1.80;99.90
44305;DHT22;30019;50.576;8.568;2023-03-01T05:35:25;-1.90;99.90
44305;DHT22;30019;50.576;8.568;2023-03-01T05:37:51;-1.90;99.90
44305;DHT22;30019;50.576;8.568;2023-03-01T05:40:20;-1.90;99.90
44305;DHT22;30019;50.576;8.568;2023-03-01T05:42:47;-1.90;99.90
44305;DHT22;30019;50.576;8.568;2023-03-01T05:45:14;-2.00;99.90
44305;DHT22;30019;50.576;8.568;2023-03-01T05:47:41;-2.00;99.90
44305;DHT22;30019;50.576;8.568;2023-03-01T05:50:19;-2.10;99.90
44305;DHT22;30019;50.576;8.568;2023-03-01T05:52:47;-2.10;99.90
44305;DHT22;30019;50.576;8.568;2023-03-01T05:55:14;-2.20;99.90
44305;DHT22;30019;50.576;8.568;2023-03-01T05:57:40;-2.30;99.90
44305;DHT22;30019;50.576;8.568;2023-03-01T06:00:07;-2.20;99.90
44305;DHT22;30019;50.576;8.568;2023-03-01T06:02:32;-2.20;99.90
44305;DHT22;30019;50.576;8.568;2023-03-01T06:04:58;-2.20;99.90
44305;DHT22;30019;50.576;8.568;2023-03-01T06:07:23;-2.10;99.90
44305;DHT22;30019;50.576;8.568;2023-03-01T06:09:49;-2.00;99.90
44305;DHT22;30019;50.576;8.568;2023-03-01T06:12:15;-1.90;99.90
44305;DHT22;30019;50.576;8.568;2023-03-01T06:14:40;-1.80;99.90
44305;DHT22;30019;50.576;8.568;2023-03-01T06:17:06;-1.70;99.90
44305;DHT22;30019;50.576;8.568;2023-03-01T06:19:32;-1.60;99.90
44305;DHT22;30019;50.576;8.568;2023-03-01T06:21:57;-1.60;99.90
44305;DHT22;30019;50.576;8.568;2023-03-01T06:24:23;-1.50;99.90
44305;DHT22;30019;50.576;8.568;2023-03-01T06:26:48;-1.60;99.90
44305;DHT22;30019;50.576;8.568;2023-03-01T06:29:14;-1.60;99.90
44305;DHT22;30019;50.576;8.568;2023-03-01T06:31:40;-1.70;99.90
44305;DHT22;30019;50.576;8.568;2023-03-01T06:34:05;-1.70;99.90
44305;DHT22;30019;50.576;8.568;2023-03-01T06:36:31;-1.50;99.90
44305;DHT22;30019;50.576;8.568;2023-03-01T06:38:56;-1.30;99.90
44305;DHT22;30019;50.576;8.568;2023-03-01T06:41:22;-1.20;99.90
44305;DHT22;30019;50.576;8.568;2023-03-01T06:43:47;-1.10;99.90
44305;DHT22;30019;50.576;8.568;2023-03-01T06:46:13;-1.10;99.90
44305;DHT22;30019;50.576;8.568;2023-03-01T06:48:38;-1.10;99.90
44305;DHT22;30019;50.576;8.568;2023-03-01T06:51:04;-1.00;99.90
44305;DHT22;30019;50.576;8.568;2023-03-01T06:53:30;-1.00;99.90
44305;DHT22;30019;50.576;8.568;2023-03-01T06:55:56;-1.00;99.90
44305;DHT22;30019;50.576;8.568;2023-03-01T06:58:22;-1.00;99.90
44305;DHT22;30019;50.576;8.568;2023-03-01T07:00:48;-1.00;99.90
44305;DHT22;30019;50.576;8.568;2023-03-01T07:03:13;-0.90;99.90
44305;DHT22;30019;50.576;8.568;2023-03-01T07:05:39;-0.90;99.90
44305;DHT22;30019;50.576;8.568;2023-03-01T07:08:04;-0.80;99.90
44305;DHT22;30019;50.576;8.568;2023-03-01T07:10:30;-0.70;99.90
44305;DHT22;30019;50.576;8.568;2023-03-01T07:12:59;-0.60;99.90
44305;DHT22;30019;50.576;8.568;2023-03-01T07:15:26;-0.60;99.90
44305;DHT22;30019;50.576;8.568;2023-03-01T07:17:51;-0.50;99.90
44305;DHT22;30019;50.576;8.568;2023-03-01T07:20:18;-0.40;99.90
44305;DHT22;30019;50.576;8.568;2023-03-01T07:22:44;-0.40;99.90
44305;DHT22;30019;50.576;8.568;2023-03-01T07:25:10;-0.30;99.90
44305;DHT22;30019;50.576;8.568;2023-03-01T07:27:36;-0.20;99.90
44305;DHT22;30019;50.576;8.568;2023-03-01T07:30:03;-0.20;99.90
44305;DHT22;30019;50.576;8.568;2023-03-01T07:32:28;-0.20;99.90
44305;DHT22;30019;50.576;8.568;2023-03-01T07:34:54;-0.10;99.90
44305;DHT22;30019;50.576;8.568;2023-03-01T07:37:20;-0.10;99.90
44305;DHT22;30019;50.576;8.568;2023-03-01T07:39:45;-0.10;99.90
44305;DHT22;30019;50.576;8.568;2023-03-01T07:42:11;-0.10;99.90
44305;DHT22;30019;50.576;8.568;2023-03-01T07:44:36;0.00;99.90
44305;DHT22;30019;50.576;8.568;2023-03-01T07:47:03;0.00;99.90
44305;DHT22;30019;50.576;8.568;2023-03-01T07:49:29;0.00;99.90
44305;DHT22;30019;50.576;8.568;2023-03-01T07:51:54;0.00;99.90
44305;DHT22;30019;50.576;8.568;2023-03-01T07:54:20;0.00;99.90
44305;DHT22;30019;50.576;8.568;2023-03-01T07:56:46;0.00;99.90
44305;DHT22;30019;50.576;8.568;2023-03-01T07:59:11;0.10;99.90
44305;DHT22;30019;50.576;8.568;2023-03-01T08:01:37;0.10;99.90
44305;DHT22;30019;50.576;8.568;2023-03-01T08:04:03;0.10;99.90
44305;DHT22;30019;50.576;8.568;2023-03-01T08:06:34;0.20;99.90
44305;DHT22;30019;50.576;8.568;2023-03-01T08:08:59;0.20;99.90
44305;DHT22;30019;50.576;8.568;2023-03-01T08:11:25;0.30;99.90
44305;DHT22;30019;50.576;8.568;2023-03-01T08:13:53;0.30;99.90
44305;DHT22;30019;50.576;8.568;2023-03-01T08:16:19;0.40;99.90
44305;DHT22;30019;50.576;8.568;2023-03-01T08:18:45;0.40;99.90
44305;DHT22;30019;50.576;8.568;2023-03-01T08:21:14;0.40;99.90
44305;DHT22;30019;50.576;8.568;2023-03-01T08:23:41;0.40;99.90
44305;DHT22;30019;50.576;8.568;2023-03-01T08:28:34;0.50;99.90
44305;DHT22;30019;50.576;8.568;2023-03-01T08:31:00;0.60;99.90
44305;DHT22;30019;50.576;8.568;2023-03-01T08:33:26;0.70;99.90
44305;DHT22;30019;50.576;8.568;2023-03-01T08:35:51;0.70;99.90
44305;DHT22;30019;50.576;8.568;2023-03-01T08:38:17;0.70;99.90
44305;DHT22;30019;50.576;8.568;2023-03-01T08:40:43;0.80;99.90
44305;DHT22;30019;50.576;8.568;2023-03-01T08:43:08;0.80;99.90
44305;DHT22;30019;50.576;8.568;2023-03-01T08:45:34;0.90;99.90
44305;DHT22;30019;50.576;8.568;2023-03-01T08:47:59;0.90;99.90
44305;DHT22;30019;50.576;8.568;2023-03-01T08:50:25;1.00;99.90
44305;DHT22;30019;50.576;8.568;2023-03-01T08:52:51;1.10;99.90
44305;DHT22;30019;50.576;8.568;2023-03-01T08:55:16;1.10;99.90
44305;DHT22;30019;50.576;8.568;2023-03-01T08:57:43;1.10;99.90
44305;DHT22;30019;50.576;8.568;2023-03-01T09:00:09;1.20;99.90
44305;DHT22;30019;50.576;8.568;2023-03-01T09:02:37;1.20;99.90
44305;DHT22;30019;50.576;8.568;2023-03-01T09:05:03;1.30;99.90
44305;DHT22;30019;50.576;8.568;2023-03-01T09:07:28;1.30;99.90
44305;DHT22;30019;50.576;8.568;2023-03-01T09:09:54;1.50;99.90
44305;DHT22;30019;50.576;8.568;2023-03-01T09:12:20;1.50;99.90
44305;DHT22;30019;50.576;8.568;2023-03-01T09:14:46;1.60;99.90
44305;DHT22;30019;50.576;8.568;2023-03-01T09:17:12;1.70;99.90
44305;DHT22;30019;50.576;8.568;2023-03-01T09:19:37;1.80;99.90
44305;DHT22;30019;50.576;8.568;2023-03-01T09:22:04;1.90;99.90
44305;DHT22;30019;50.576;8.568;2023-03-01T09:24:30;1.90;99.90
44305;DHT22;30019;50.576;8.568;2023-03-01T09:26:56;2.10;99.90
44305;DHT22;30019;50.576;8.568;2023-03-01T09:29:22;2.10;99.90
44305;DHT22;30019;50.576;8.568;2023-03-01T09:31:48;2.10;99.90
44305;DHT22;30019;50.576;8.568;2023-03-01T09:34:13;2.10;99.90
44305;DHT22;30019;50.576;8.568;2023-03-01T09:36:41;2.30;99.90
44305;DHT22;30019;50.576;8.568;2023-03-01T09:39:07;2.40;99.90
44305;DHT22;30019;50.576;8.568;2023-03-01T09:42:01;2.50;99.90
44305;DHT22;30019;50.576;8.568;2023-03-01T09:44:42;2.60;99.90
44305;DHT22;30019;50.576;8.568;2023-03-01T09:47:19;2.70;99.90
44305;DHT22;30019;50.576;8.568;2023-03-01T09:50:00;2.80;99.90
44305;DHT22;30019;50.576;8.568;2023-03-01T09:52:41;2.90;99.90
44305;DHT22;30019;50.576;8.568;2023-03-01T09:55:15;3.10;99.90
44305;DHT22;30019;50.576;8.568;2023-03-01T09:57:52;3.30;99.90
44305;DHT22;30019;50.576;8.568;2023-03-01T10:00:34;3.20;99.90
44305;DHT22;30019;50.576;8.568;2023-03-01T10:06:14;3.40;99.90
44305;DHT22;30019;50.576;8.568;2023-03-01T10:11:02;3.30;99.90
44305;DHT22;30019;50.576;8.568;2023-03-01T10:16:13;3.70;99.90
44305;DHT22;30019;50.576;8.568;2023-03-01T10:18:40;3.50;99.90
44305;DHT22;30019;50.576;8.568;2023-03-01T10:21:15;3.80;99.90
44305;DHT22;30019;50.576;8.568;2023-03-01T10:23:42;3.90;99.90
44305;DHT22;30019;50.576;8.568;2023-03-01T10:29:07;4.00;99.90
44305;DHT22;30019;50.576;8.568;2023-03-01T10:34:32;4.10;99.90
44305;DHT22;30019;50.576;8.568;2023-03-01T10:37:18;4.30;99.90
44305;DHT22;30019;50.576;8.568;2023-03-01T10:40:06;4.40;99.90
44305;DHT22;30019;50.576;8.568;2023-03-01T10:42:52;4.40;99.90
44305;DHT22;30019;50.576;8.568;2023-03-01T10:48:21;4.70;99.90
44305;DHT22;30019;50.576;8.568;2023-03-01T10:51:06;4.70;99.90
44305;DHT22;30019;50.576;8.568;2023-03-01T10:53:40;4.80;99.90
44305;DHT22;30019;50.576;8.568;2023-03-01T10:56:11;4.80;99.90
44305;DHT22;30019;50.576;8.568;2023-03-01T10:59:02;5.10;99.90
44305;DHT22;30019;50.576;8.568;2023-03-01T11:01:30;5.40;99.90
44305;DHT22;30019;50.576;8.568;2023-03-01T11:06:33;4.90;99.90
44305;DHT22;30019;50.576;8.568;2023-03-01T11:09:18;5.00;99.90
44305;DHT22;30019;50.576;8.568;2023-03-01T11:11:45;5.10;99.90
44305;DHT22;30019;50.576;8.568;2023-03-01T11:14:22;5.10;99.90
44305;DHT22;30019;50.576;8.568;2023-03-01T11:16:58;5.40;99.90
44305;DHT22;30019;50.576;8.568;2023-03-01T11:19:24;5.40;99.90
44305;DHT22;30019;50.576;8.568;2023-03-01T11:22:12;5.70;99.90
44305;DHT22;30019;50.576;8.568;2023-03-01T11:24:46;5.90;99.90
44305;DHT22;30019;50.576;8.568;2023-03-01T11:27:18;6.10;99.40
44305;DHT22;30019;50.576;8.568;2023-03-01T11:29:48;6.00;99.00
44305;DHT22;30019;50.576;8.568;2023-03-01T11:32:16;6.00;99.90
44305;DHT22;30019;50.576;8.568;2023-03-01T11:40:05;6.20;98.30
44305;DHT22;30019;50.576;8.568;2023-03-01T11:48:26;6.50;97.20
44305;DHT22;30019;50.576;8.568;2023-03-01T11:50:55;6.60;97.60
44305;DHT22;30019;50.576;8.568;2023-03-01T11:53:56;6.50;97.80
44305;DHT22;30019;50.576;8.568;2023-03-01T11:56:43;6.50;97.10
44305;DHT22;30019;50.576;8.568;2023-03-01T12:07:32;6.70;96.20
44305;DHT22;30019;50.576;8.568;2023-03-01T12:15:49;6.60;96.70
44305;DHT22;30019;50.576;8.568;2023-03-01T12:21:21;7.10;96.50
44305;DHT22;30019;50.576;8.568;2023-03-01T12:26:51;7.00;95.70
44305;DHT22;30019;50.576;8.568;2023-03-01T12:29:51;7.10;95.90
44305;DHT22;30019;50.576;8.568;2023-03-01T12:35:12;7.20;95.00
44305;DHT22;30019;50.576;8.568;2023-03-01T12:37:54;7.50;93.90
44305;DHT22;30019;50.576;8.568;2023-03-01T12:43:14;7.90;93.10
44305;DHT22;30019;50.576;8.568;2023-03-01T12:51:39;8.00;93.10
44305;DHT22;30019;50.576;8.568;2023-03-01T12:54:14;8.20;91.60
44305;DHT22;30019;50.576;8.568;2023-03-01T12:56:40;8.40;92.30
44305;DHT22;30019;50.576;8.568;2023-03-01T13:04:12;8.60;90.20
44305;DHT22;30019;50.576;8.568;2023-03-01T13:06:58;8.40;92.20
44305;DHT22;30019;50.576;8.568;2023-03-01T13:09:56;8.50;91.00
44305;DHT22;30019;50.576;8.568;2023-03-01T13:17:53;8.20;91.20
44305;DHT22;30019;50.576;8.568;2023-03-01T13:20:23;8.20;90.10
44305;DHT22;30019;50.576;8.568;2023-03-01T13:23:00;8.40;90.20
44305;DHT22;30019;50.576;8.568;2023-03-01T13:25:26;8.40;89.90
44305;DHT22;30019;50.576;8.568;2023-03-01T13:30:56;8.10;90.20
44305;DHT22;30019;50.576;8.568;2023-03-01T13:35:57;8.20;90.40
44305;DHT22;30019;50.576;8.568;2023-03-01T13:46:43;7.60;89.90
44305;DHT22;30019;50.576;8.568;2023-03-01T13:49:14;7.70;90.00
44305;DHT22;30019;50.576;8.568;2023-03-01T13:51:41;7.80;90.50
44305;DHT22;30019;50.576;8.568;2023-03-01T13:54:11;8.00;90.90
44305;DHT22;30019;50.576;8.568;2023-03-01T13:56:38;8.30;90.30
44305;DHT22;30019;50.576;8.568;2023-03-01T13:59:18;8.30;90.10
44305;DHT22;30019;50.576;8.568;2023-03-01T14:01:43;8.50;88.30
44305;DHT22;30019;50.576;8.568;2023-03-01T14:04:30;8.40;87.20
44305;DHT22;30019;50.576;8.568;2023-03-01T14:09:40;8.20;90.30
44305;DHT22;30019;50.576;8.568;2023-03-01T14:15:42;8.10;89.40
44305;DHT22;30019;50.576;8.568;2023-03-01T14:18:26;8.10;87.80
44305;DHT22;30019;50.576;8.568;2023-03-01T14:20:53;8.40;87.60
44305;DHT22;30019;50.576;8.568;2023-03-01T14:23:21;8.20;88.00
44305;DHT22;30019;50.576;8.568;2023-03-01T14:25:52;7.90;89.60
44305;DHT22;30019;50.576;8.568;2023-03-01T14:28:22;7.70;88.60
44305;DHT22;30019;50.576;8.568;2023-03-01T14:30:50;7.90;88.40
44305;DHT22;30019;50.576;8.568;2023-03-01T14:33:26;7.80;88.30
44305;DHT22;30019;50.576;8.568;2023-03-01T14:35:58;8.10;87.40
44305;DHT22;30019;50.576;8.568;2023-03-01T14:38:31;7.80;87.80
44305;DHT22;30019;50.576;8.568;2023-03-01T14:41:03;7.90;87.70
44305;DHT22;30019;50.576;8.568;2023-03-01T14:43:30;7.90;88.30
44305;DHT22;30019;50.576;8.568;2023-03-01T14:45:57;7.90;88.50
44305;DHT22;30019;50.576;8.568;2023-03-01T14:48:23;8.30;88.60
44305;DHT22;30019;50.576;8.568;2023-03-01T14:50:49;8.00;88.30
44305;DHT22;30019;50.576;8.568;2023-03-01T14:53:27;8.00;87.90
44305;DHT22;30019;50.576;8.568;2023-03-01T14:56:00;8.00;88.40
44305;DHT22;30019;50.576;8.568;2023-03-01T14:58:28;7.90;85.40
44305;DHT22;30019;50.576;8.568;2023-03-01T15:01:00;7.70;85.50
44305;DHT22;30019;50.576;8.568;2023-03-01T15:03:45;7.60;86.80
44305;DHT22;30019;50.576;8.568;2023-03-01T15:06:19;7.70;84.70
44305;DHT22;30019;50.576;8.568;2023-03-01T15:08:48;7.50;84.00
44305;DHT22;30019;50.576;8.568;2023-03-01T15:11:22;7.20;82.30
44305;DHT22;30019;50.576;8.568;2023-03-01T15:13:50;6.90;83.10
44305;DHT22;30019;50.576;8.568;2023-03-01T15:16:22;6.70;84.00
44305;DHT22;30019;50.576;8.568;2023-03-01T15:18:52;6.70;83.30
44305;DHT22;30019;50.576;8.568;2023-03-01T15:21:29;6.60;84.20
44305;DHT22;30019;50.576;8.568;2023-03-01T15:26:42;6.70;85.10
44305;DHT22;30019;50.576;8.568;2023-03-01T15:29:17;6.60;84.90
44305;DHT22;30019;50.576;8.568;2023-03-01T15:31:50;6.60;84.00
44305;DHT22;30019;50.576;8.568;2023-03-01T15:34:28;6.60;86.70
44305;DHT22;30019;50.576;8.568;2023-03-01T15:36:57;6.60;88.40
44305;DHT22;30019;50.576;8.568;2023-03-01T15:39:50;6.60;89.50
44305;DHT22;30019;50.576;8.568;2023-03-01T15:47:39;6.50;89.60
44305;DHT22;30019;50.576;8.568;2023-03-01T15:50:11;6.50;89.80
44305;DHT22;30019;50.576;8.568;2023-03-01T15:52:42;6.40;89.70
44305;DHT22;30019;50.576;8.568;2023-03-01T15:55:19;6.30;88.60
44305;DHT22;30019;50.576;8.568;2023-03-01T15:57:45;6.20;88.20
44305;DHT22;30019;50.576;8.568;2023-03-01T16:00:12;6.20;88.00
44305;DHT22;30019;50.576;8.568;2023-03-01T16:02:39;6.20;88.60
44305;DHT22;30019;50.576;8.568;2023-03-01T16:05:08;6.20;86.80
44305;DHT22;30019;50.576;8.568;2023-03-01T16:07:39;6.20;86.60
44305;DHT22;30019;50.576;8.568;2023-03-01T16:10:05;6.10;87.00
44305;DHT22;30019;50.576;8.568;2023-03-01T16:12:30;6.10;86.60
44305;DHT22;30019;50.576;8.568;2023-03-01T16:14:56;6.00;86.20
44305;DHT22;30019;50.576;8.568;2023-03-01T16:17:23;6.00;86.90
44305;DHT22;30019;50.576;8.568;2023-03-01T16:19:48;5.90;86.90
44305;DHT22;30019;50.576;8.568;2023-03-01T16:22:14;5.90;85.90
44305;DHT22;30019;50.576;8.568;2023-03-01T16:24:39;5.90;85.20
44305;DHT22;30019;50.576;8.568;2023-03-01T16:27:06;5.80;84.90
44305;DHT22;30019;50.576;8.568;2023-03-01T16:29:32;5.80;84.20
44305;DHT22;30019;50.576;8.568;2023-03-01T16:32:00;5.70;85.00
44305;DHT22;30019;50.576;8.568;2023-03-01T16:34:26;5.60;86.00
44305;DHT22;30019;50.576;8.568;2023-03-01T16:36:52;5.60;85.60
44305;DHT22;30019;50.576;8.568;2023-03-01T16:39:17;5.60;84.70
44305;DHT22;30019;50.576;8.568;2023-03-01T16:41:43;5.50;85.80
44305;DHT22;30019;50.576;8.568;2023-03-01T16:44:08;5.40;85.70
44305;DHT22;30019;50.576;8.568;2023-03-01T16:46:35;5.40;85.50
44305;DHT22;30019;50.576;8.568;2023-03-01T16:49:00;5.40;85.80
44305;DHT22;30019;50.576;8.568;2023-03-01T16:51:26;5.30;86.10
44305;DHT22;30019;50.576;8.568;2023-03-01T16:53:52;5.20;86.40
44305;DHT22;30019;50.576;8.568;2023-03-01T16:56:18;5.10;87.20
44305;DHT22;30019;50.576;8.568;2023-03-01T16:58:44;5.00;86.90
44305;DHT22;30019;50.576;8.568;2023-03-01T17:01:17;5.00;86.60
44305;DHT22;30019;50.576;8.568;2023-03-01T17:03:43;5.00;86.00
44305;DHT22;30019;50.576;8.568;2023-03-01T17:06:11;5.00;87.10
44305;DHT22;30019;50.576;8.568;2023-03-01T17:08:38;4.90;86.40
44305;DHT22;30019;50.576;8.568;2023-03-01T17:11:09;4.90;88.00
44305;DHT22;30019;50.576;8.568;2023-03-01T17:13:36;4.70;87.50
44305;DHT22;30019;50.576;8.568;2023-03-01T17:16:06;4.70;86.90
44305;DHT22;30019;50.576;8.568;2023-03-01T17:18:33;4.70;86.70
44305;DHT22;30019;50.576;8.568;2023-03-01T17:20:59;4.70;87.30
44305;DHT22;30019;50.576;8.568;2023-03-01T17:23:26;4.60;87.90
44305;DHT22;30019;50.576;8.568;2023-03-01T17:25:52;4.50;88.90
44305;DHT22;30019;50.576;8.568;2023-03-01T17:28:23;4.40;88.60
44305;DHT22;30019;50.576;8.568;2023-03-01T17:30:49;4.40;89.30
44305;DHT22;30019;50.576;8.568;2023-03-01T17:33:15;4.40;88.60
44305;DHT22;30019;50.576;8.568;2023-03-01T17:35:41;4.30;89.70
44305;DHT22;30019;50.576;8.568;2023-03-01T17:38:06;4.20;90.10
44305;DHT22;30019;50.576;8.568;2023-03-01T17:40:33;4.20;91.00